createdAt,value
2022-11-12T00:00:01.776Z,101151.88
2022-11-12T00:03:08.301Z,101146.56
2022-11-12T00:06:14.640Z,101147.09
2022-11-12T00:09:21.061Z,101161.91
2022-11-12T00:12:27.694Z,101160.28
2022-11-12T00:15:35.874Z,101159.47
2022-11-12T00:18:42.218Z,101151.88
2022-11-12T00:21:48.852Z,101153.47
2022-11-12T00:24:55.542Z,101140.75
2022-11-12T00:28:04.586Z,101147.72
2022-11-12T00:31:13.656Z,101147.91
2022-11-12T00:34:20.134Z,101150.50
2022-11-12T00:37:26.542Z,101152.13
2022-11-12T00:40:33.155Z,101144.31
2022-11-12T00:43:39.536Z,101148.38
2022-11-12T00:46:47.513Z,101139.06
2022-11-12T00:49:53.806Z,101142.72
2022-11-12T00:53:00.182Z,101135.75
2022-11-12T00:56:09.306Z,101144.50
2022-11-12T00:59:15.809Z,101143.06
2022-11-12T01:02:23.398Z,101142.00
2022-11-12T01:05:29.638Z,101144.97
2022-11-12T01:08:36.554Z,101143.06
2022-11-12T01:11:43.379Z,101152.22
2022-11-12T01:14:50.012Z,101145.78
2022-11-12T01:17:58.071Z,101150.50
2022-11-12T01:21:05.907Z,101150.50
2022-11-12T01:24:12.870Z,101161.97
2022-11-12T01:27:18.916Z,101160.28
2022-11-12T01:30:25.211Z,101145.59
2022-11-12T01:33:32.762Z,101147.63
2022-11-12T01:36:40.844Z,101145.31
2022-11-12T01:39:47.017Z,101140.47
2022-11-12T01:42:53.985Z,101135.63
2022-11-12T01:46:03.851Z,101136.28
2022-11-12T01:49:15.920Z,101137.41
2022-11-12T01:52:27.694Z,101136.81
2022-11-12T01:55:37.379Z,101142.38
2022-11-12T01:58:44.973Z,101144.50
2022-11-12T02:01:51.233Z,101154.47
2022-11-12T02:04:59.898Z,101146.03
2022-11-12T02:08:11.050Z,101148.38
2022-11-12T02:11:20.720Z,101149.72
2022-11-12T02:14:26.816Z,101151.66
2022-11-12T02:17:32.967Z,101150.84
2022-11-12T02:20:40.745Z,101146.06
2022-11-12T02:23:48.389Z,101145.59
2022-11-12T02:26:56.546Z,101154.97
2022-11-12T02:30:02.860Z,101149.78
2022-11-12T02:33:09.256Z,101149.97
2022-11-12T02:36:16.016Z,101156.97
2022-11-12T02:39:23.702Z,101144.59
2022-11-12T02:42:29.989Z,101143.44
2022-11-12T02:45:36.450Z,101140.69
2022-11-12T02:48:42.991Z,101135.28
2022-11-12T02:51:49.463Z,101143.06
2022-11-12T02:54:57.590Z,101141.66
2022-11-12T02:58:03.847Z,101139.03
2022-11-12T03:01:10.472Z,101133.50
2022-11-12T03:04:16.968Z,101130.28
2022-11-12T03:07:23.506Z,101134.50
2022-11-12T03:10:32.177Z,101129.31
2022-11-12T03:13:39.461Z,101110.13
2022-11-12T03:16:45.865Z,101105.41
2022-11-12T03:19:52.367Z,101108.97
2022-11-12T03:23:00.785Z,101109.94
2022-11-12T03:26:08.874Z,101099.91
2022-11-12T03:29:15.409Z,101099.50
2022-11-12T03:32:21.715Z,101101.09
2022-11-12T03:35:28.743Z,101110.13
2022-11-12T03:38:35.144Z,101106.53
2022-11-12T03:41:42.918Z,101105.56
2022-11-12T03:44:49.033Z,101102.34
2022-11-12T03:47:57.399Z,101102.97
2022-11-12T03:51:03.665Z,101098.56
2022-11-12T03:54:10.336Z,101097.78
2022-11-12T03:57:17.862Z,101105.28
2022-11-12T04:00:26.267Z,101114.78
2022-11-12T04:03:32.351Z,101115.78
2022-11-12T04:06:56.589Z,101100.03
2022-11-12T04:10:02.974Z,101113.34
2022-11-12T04:13:28.848Z,101114.19
2022-11-12T04:16:52.999Z,101108.69
2022-11-12T04:20:17.022Z,101097.25
2022-11-12T04:23:23.425Z,101096.44
2022-11-12T04:26:29.016Z,101100.66
2022-11-12T04:29:54.815Z,101082.47
2022-11-12T04:33:01.407Z,101090.44
2022-11-12T04:36:08.235Z,101089.81
2022-11-12T04:39:14.597Z,101088.75
2022-11-12T04:42:39.299Z,101093.28
2022-11-12T04:45:50.412Z,101088.09
2022-11-12T04:48:57.295Z,101099.47
2022-11-12T04:52:06.412Z,101095.28
2022-11-12T04:55:12.858Z,101113.44
2022-11-12T04:58:19.868Z,101103.22
2022-11-12T05:01:27.853Z,101111.19
2022-11-12T05:04:34.742Z,101114.41
2022-11-12T05:07:41.435Z,101110.84
2022-11-12T05:10:47.870Z,101107.78
2022-11-12T05:13:54.327Z,101106.34
2022-11-12T05:17:02.910Z,101113.78
2022-11-12T05:20:10.896Z,101111.19
2022-11-12T05:23:17.089Z,101109.13
2022-11-12T05:26:23.271Z,101111.28
2022-11-12T05:29:29.628Z,101111.47
2022-11-12T05:32:37.582Z,101102.34
2022-11-12T05:35:43.524Z,101103.34
2022-11-12T05:38:49.841Z,101115.31
2022-11-12T05:42:12.625Z,101119.09
2022-11-12T05:45:20.058Z,101125.63
2022-11-12T05:48:28.027Z,101130.81
2022-11-12T05:51:34.296Z,101137.78
2022-11-12T05:54:40.776Z,101124.34
2022-11-12T05:57:47.242Z,101127.47
2022-11-12T06:00:53.560Z,101116.91
2022-11-12T06:04:01.270Z,101120.34
2022-11-12T06:07:07.459Z,101126.03
2022-11-12T06:10:20.179Z,101133.34
2022-11-12T06:13:27.308Z,101133.09
2022-11-12T06:16:33.968Z,101140.22
2022-11-12T06:19:41.672Z,101143.16
2022-11-12T06:22:47.860Z,101145.56
2022-11-12T06:25:54.281Z,101142.97
2022-11-12T06:29:00.801Z,101137.97
2022-11-12T06:32:07.264Z,101137.63
2022-11-12T06:35:15.559Z,101137.28
2022-11-12T06:38:22.875Z,101138.47
2022-11-12T06:41:29.232Z,101139.66
2022-11-12T06:44:35.913Z,101145.81
2022-11-12T06:47:42.498Z,101144.84
2022-11-12T06:50:50.456Z,101148.25
2022-11-12T06:53:57.756Z,101152.41
2022-11-12T06:57:04.199Z,101156.06
2022-11-12T07:00:12.570Z,101152.84
2022-11-12T07:03:18.607Z,101147.22
2022-11-12T07:06:10.353Z,101142.03
2022-11-12T07:08:58.433Z,101148.81
2022-11-12T07:11:45.757Z,101143.63
2022-11-12T07:14:33.821Z,101147.81
2022-11-12T07:17:21.667Z,101149.59
2022-11-12T07:20:11.635Z,101145.91
2022-11-12T07:23:03.213Z,101137.34
2022-11-12T07:25:58.654Z,101144.31
2022-11-12T07:28:46.822Z,101134.28
2022-11-12T07:31:34.217Z,101142.72
2022-11-12T07:34:21.622Z,101133.94
2022-11-12T07:37:09.390Z,101140.38
2022-11-12T07:39:58.206Z,101131.66
2022-11-12T07:42:45.884Z,101133.19
2022-11-12T07:45:33.165Z,101132.84
2022-11-12T07:48:20.574Z,101133.47
2022-11-12T07:51:10.547Z,101137.31
2022-11-12T07:54:00.602Z,101122.94
2022-11-12T07:56:49.495Z,101127.81
2022-11-12T07:59:39.505Z,101129.31
2022-11-12T08:02:29.246Z,101132.91
2022-11-12T08:05:21.107Z,101132.25
2022-11-12T08:08:09.206Z,101136.84
2022-11-12T08:10:57.792Z,101132.78
2022-11-12T08:13:46.851Z,101137.34
2022-11-12T08:16:34.310Z,101134.75
2022-11-12T08:19:22.023Z,101134.75
2022-11-12T08:22:09.317Z,101132.16
2022-11-12T08:24:56.730Z,101131.34
2022-11-12T08:27:44.246Z,101134.94
2022-11-12T08:30:33.487Z,101133.28
2022-11-12T08:33:21.110Z,101140.03
2022-11-12T08:36:12.072Z,101143.84
2022-11-12T08:38:59.587Z,101150.22
2022-11-12T08:41:47.005Z,101147.97
2022-11-12T08:44:34.883Z,101143.84
2022-11-12T08:47:23.864Z,101143.50
2022-11-12T08:50:11.600Z,101149.38
2022-11-12T08:53:02.355Z,101161.38
2022-11-12T08:55:49.935Z,101167.03
2022-11-12T08:58:37.760Z,101150.94
2022-11-12T09:01:25.128Z,101150.56
2022-11-12T09:04:13.898Z,101150.03
2022-11-12T09:07:01.397Z,101153.88
2022-11-12T09:09:49.251Z,101150.94
2022-11-12T09:12:36.913Z,101149.31
2022-11-12T09:15:42.231Z,101144.50
2022-11-12T09:18:30.118Z,101143.41
2022-11-12T09:21:21.814Z,101136.44
2022-11-12T09:24:09.742Z,101145.13
2022-11-12T09:26:57.261Z,101143.44
2022-11-12T09:29:44.960Z,101139.66
2022-11-12T09:32:32.306Z,101142.34
2022-11-12T09:35:19.679Z,101145.22
2022-11-12T09:38:08.592Z,101138.69
2022-11-12T09:41:35.784Z,101142.53
2022-11-12T09:44:24.510Z,101142.19
2022-11-12T09:47:19.606Z,101130.44
2022-11-12T09:50:22.155Z,101132.69
2022-11-12T09:53:18.450Z,101126.53
2022-11-12T09:56:09.233Z,101133.03
2022-11-12T09:58:56.862Z,101131.44
2022-11-12T10:01:56.431Z,101135.28
2022-11-12T10:05:13.827Z,101125.19
2022-11-12T10:08:22.859Z,101118.63
2022-11-12T10:12:03.801Z,101119.69
2022-11-12T10:15:39.453Z,101119.75
2022-11-12T10:19:06.191Z,101119.03
2022-11-12T10:22:01.039Z,101116.72
2022-11-12T10:24:50.260Z,101119.94
2022-11-12T10:27:41.656Z,101107.47
2022-11-12T10:30:29.018Z,101104.34
2022-11-12T10:33:18.046Z,101098.78
2022-11-12T10:36:24.841Z,101091.25
2022-11-12T10:39:31.919Z,101099.28
2022-11-12T10:42:23.033Z,101103.31
2022-11-12T10:45:22.394Z,101102.75
2022-11-12T10:48:27.290Z,101092.19
2022-11-12T10:51:26.951Z,101093.97
2022-11-12T10:54:29.748Z,101096.56
2022-11-12T10:57:24.852Z,101091.81
2022-11-12T11:00:21.688Z,101089.94
2022-11-12T11:03:20.057Z,101088.03
2022-11-12T11:06:21.347Z,101093.28
2022-11-12T11:09:20.628Z,101085.38
2022-11-12T11:12:27.320Z,101080.16
2022-11-12T11:15:22.910Z,101081.13
2022-11-12T11:18:13.209Z,101081.13
2022-11-12T11:21:14.125Z,101078.81
2022-11-12T11:24:15.796Z,101084.22
2022-11-12T11:27:06.574Z,101080.28
2022-11-12T11:30:09.825Z,101077.09
2022-11-12T11:33:22.299Z,101078.34
2022-11-12T11:36:23.186Z,101064.75
2022-11-12T11:39:23.803Z,101068.38
2022-11-12T11:42:29.428Z,101069.97
2022-11-12T11:45:26.528Z,101075.16
2022-11-12T11:48:24.375Z,101061.00
2022-11-12T11:51:37.817Z,101069.19
2022-11-12T11:54:46.236Z,101067.59
2022-11-12T11:57:49.046Z,101060.56
2022-11-12T12:00:47.696Z,101058.59
2022-11-12T12:03:51.341Z,101056.59
2022-11-12T12:06:46.118Z,101052.00
2022-11-12T12:09:39.688Z,101051.63
2022-11-12T12:12:47.987Z,101053.50
2022-11-12T12:16:04.377Z,101046.91
2022-11-12T12:19:00.797Z,101042.91
2022-11-12T12:21:52.218Z,101028.13
2022-11-12T12:24:51.455Z,101033.72
2022-11-12T12:27:48.852Z,101020.16
2022-11-12T12:30:41.440Z,101026.34
2022-11-12T12:33:37.431Z,101022.56
2022-11-12T12:36:32.658Z,101024.16
2022-11-12T12:39:26.564Z,101015.34
2022-11-12T12:42:19.752Z,101020.56
2022-11-12T12:45:35.758Z,101006.94
2022-11-12T12:48:30.738Z,101002.56
2022-11-12T12:51:18.317Z,101002.31
2022-11-12T12:54:06.321Z,101002.31
2022-11-12T12:56:53.975Z,100995.34
2022-11-12T12:59:41.174Z,100994.13
2022-11-12T13:02:28.648Z,100988.16
2022-11-12T13:05:30.758Z,100981.38
2022-11-12T13:08:25.219Z,100985.75
2022-11-12T13:12:11.514Z,100983.97
2022-11-12T13:15:17.041Z,100979.78
2022-11-12T13:18:11.596Z,100984.56
2022-11-12T13:21:13.363Z,100977.38
2022-11-12T13:24:09.359Z,100983.78
2022-11-12T13:26:59.141Z,100983.03
2022-11-12T13:29:48.768Z,100980.66
2022-11-12T13:32:39.298Z,100970.88
2022-11-12T13:35:32.319Z,100978.69
2022-11-12T13:38:21.488Z,100974.09
2022-11-12T13:41:17.811Z,100974.69
2022-11-12T13:44:08.928Z,100974.88
2022-11-12T13:46:57.593Z,100980.28
2022-11-12T13:49:46.948Z,100975.88
2022-11-12T13:52:36.039Z,100972.28
2022-11-12T13:55:25.160Z,100971.09
2022-11-12T13:58:26.849Z,100965.91
2022-11-12T14:01:14.969Z,100957.06
2022-11-12T14:04:02.463Z,100954.28
2022-11-12T14:06:52.598Z,100959.28
2022-11-12T14:09:55.774Z,100943.66
2022-11-12T14:13:04.059Z,100944.66
2022-11-12T14:16:21.701Z,100946.03
2022-11-12T14:20:16.461Z,100947.03
2022-11-12T14:23:11.889Z,100943.44
2022-11-12T14:25:59.517Z,100943.44
2022-11-12T14:28:57.072Z,100943.22
2022-11-12T14:31:44.952Z,100939.41
2022-11-12T14:34:35.348Z,100944.63
2022-11-12T14:37:42.978Z,100939.41
2022-11-12T14:40:35.084Z,100935.00
2022-11-12T14:43:39.726Z,100939.41
2022-11-12T14:46:31.370Z,100931.16
2022-11-12T14:49:26.648Z,100932.94
2022-11-12T14:52:20.896Z,100924.16
2022-11-12T14:55:13.987Z,100925.50
2022-11-12T14:58:02.533Z,100927.34
2022-11-12T15:00:52.235Z,100926.31
2022-11-12T15:03:41.259Z,100917.69
2022-11-12T15:06:32.122Z,100931.72
2022-11-12T15:09:21.958Z,100928.53
2022-11-12T15:12:14.266Z,100920.91
2022-11-12T15:15:11.704Z,100921.06
2022-11-12T15:18:00.815Z,100918.16
2022-11-12T15:21:07.808Z,100929.13
2022-11-12T15:24:06.875Z,100925.94
2022-11-12T15:26:57.075Z,100923.72
2022-11-12T15:29:44.366Z,100922.06
2022-11-12T15:32:35.149Z,100918.88
2022-11-12T15:35:37.014Z,100918.25
2022-11-12T15:38:31.695Z,100921.88
2022-11-12T15:41:25.420Z,100924.47
2022-11-12T15:44:13.499Z,100923.47
2022-11-12T15:47:01.828Z,100919.47
2022-11-12T15:49:53.465Z,100921.63
2022-11-12T15:52:41.644Z,100917.03
2022-11-12T15:55:30.378Z,100909.41
2022-11-12T15:58:21.720Z,100903.59
2022-11-12T16:01:08.952Z,100891.97
2022-11-12T16:03:56.698Z,100900.16
2022-11-12T16:06:44.158Z,100894.34
2022-11-12T16:09:31.899Z,100884.75
2022-11-12T16:12:20.899Z,100876.13
2022-11-12T16:15:14.743Z,100878.34
2022-11-12T16:18:02.137Z,100880.34
2022-11-12T16:20:50.254Z,100876.13
2022-11-12T16:23:38.087Z,100875.28
2022-11-12T16:26:30.181Z,100876.47
2022-11-12T16:29:20.754Z,100878.31
2022-11-12T16:32:14.501Z,100869.31
2022-11-12T16:35:02.345Z,100868.50
2022-11-12T16:37:51.476Z,100861.50
2022-11-12T16:40:39.089Z,100863.09
2022-11-12T16:43:27.269Z,100861.88
2022-11-12T16:46:24.176Z,100861.50
2022-11-12T16:49:15.931Z,100866.72
2022-11-12T16:52:04.429Z,100861.31
2022-11-12T16:54:52.446Z,100854.31
2022-11-12T16:57:41.148Z,100866.31
2022-11-12T17:00:29.359Z,100859.53
2022-11-12T17:03:17.386Z,100857.72
2022-11-12T17:06:06.857Z,100861.13
2022-11-12T17:08:55.854Z,100859.34
2022-11-12T17:11:43.674Z,100857.50
2022-11-12T17:14:31.691Z,100861.13
2022-11-12T17:17:19.707Z,100851.53
2022-11-12T17:20:09.082Z,100849.50
2022-11-12T17:22:59.101Z,100843.53
2022-11-12T17:25:47.153Z,100857.13
2022-11-12T17:28:35.598Z,100847.72
2022-11-12T17:31:24.613Z,100843.53
2022-11-12T17:34:12.576Z,100849.13
2022-11-12T17:37:00.409Z,100847.50
2022-11-12T17:39:49.945Z,100833.28
2022-11-12T17:42:37.946Z,100834.66
2022-11-12T17:45:25.641Z,100844.47
2022-11-12T17:48:13.406Z,100833.25
2022-11-12T17:51:14.647Z,100827.25
2022-11-12T17:54:02.407Z,100832.25
2022-11-12T17:56:51.640Z,100827.66
2022-11-12T17:59:39.605Z,100825.84
2022-11-12T18:02:27.381Z,100826.66
2022-11-12T18:05:15.267Z,100822.84
2022-11-12T18:08:06.486Z,100823.09
2022-11-12T18:10:54.315Z,100822.28
2022-11-12T18:13:43.600Z,100814.66
2022-11-12T18:16:31.365Z,100814.91
2022-11-12T18:19:19.439Z,100813.91
2022-11-12T18:22:07.126Z,100818.72
2022-11-12T18:24:54.979Z,100810.72
2022-11-12T18:27:42.891Z,100816.69
2022-11-12T18:30:32.443Z,100812.69
2022-11-12T18:33:20.437Z,100815.50
2022-11-12T18:36:12.581Z,100821.69
2022-11-12T18:39:00.366Z,100817.91
2022-11-12T18:41:48.618Z,100815.72
2022-11-12T18:44:36.927Z,100823.13
2022-11-12T18:47:26.353Z,100821.13
2022-11-12T18:50:14.428Z,100817.31
2022-11-12T18:53:05.330Z,100815.16
2022-11-12T18:55:53.433Z,100809.13
2022-11-12T18:58:41.873Z,100811.53
2022-11-12T19:01:29.597Z,100814.31
2022-11-12T19:04:18.663Z,100812.31
2022-11-12T19:07:06.762Z,100805.50
2022-11-12T19:09:54.826Z,100806.50
2022-11-12T19:12:42.636Z,100802.31
2022-11-12T19:15:30.089Z,100796.31
2022-11-12T19:18:18.128Z,100803.91
2022-11-12T19:21:11.294Z,100800.91
2022-11-12T19:24:00.507Z,100798.72
2022-11-12T19:26:48.344Z,100791.91
2022-11-12T19:29:35.998Z,100790.28
2022-11-12T19:32:23.486Z,100780.25
2022-11-12T19:35:11.442Z,100784.06
2022-11-12T19:38:00.699Z,100786.91
2022-11-12T19:40:48.440Z,100777.88
2022-11-12T19:43:36.751Z,100779.09
2022-11-12T19:46:25.373Z,100774.69
2022-11-12T19:49:13.542Z,100783.28
2022-11-12T19:52:01.564Z,100783.88
2022-11-12T19:54:50.549Z,100780.44
2022-11-12T19:57:38.522Z,100776.25
2022-11-12T20:00:26.292Z,100776.25
2022-11-12T20:03:14.456Z,100777.84
2022-11-12T20:06:03.385Z,100772.66
2022-11-12T20:08:51.176Z,100764.84
2022-11-12T20:11:40.202Z,100758.63
2022-11-12T20:14:27.995Z,100757.03
2022-11-12T20:17:16.084Z,100757.41
2022-11-12T20:20:04.343Z,100762.63
2022-11-12T20:22:52.269Z,100756.63
2022-11-12T20:25:39.925Z,100753.03
2022-11-12T20:28:29.089Z,100757.41
2022-11-12T20:31:20.718Z,100746.19
2022-11-12T20:34:08.759Z,100750.59
2022-11-12T20:36:56.653Z,100750.00
2022-11-12T20:39:44.500Z,100746.97
2022-11-12T20:42:32.413Z,100747.16
2022-11-12T20:45:21.238Z,100750.97
2022-11-12T20:48:08.981Z,100748.16
2022-11-12T20:51:22.725Z,100748.16
2022-11-12T20:54:12.035Z,100748.38
2022-11-12T20:57:01.258Z,100752.94
2022-11-12T20:59:51.378Z,100756.94
2022-11-12T21:02:40.705Z,100762.13
2022-11-12T21:05:47.530Z,100759.72
2022-11-12T21:08:54.457Z,100750.47
2022-11-12T21:12:01.123Z,100742.47
2022-11-12T21:15:08.772Z,100749.66
2022-11-12T21:18:16.656Z,100740.25
2022-11-12T21:21:23.575Z,100735.25
2022-11-12T21:24:30.005Z,100733.47
2022-11-12T21:27:36.484Z,100730.47
2022-11-12T21:30:42.920Z,100744.25
2022-11-12T21:33:53.076Z,100739.84
2022-11-12T21:36:59.883Z,100739.84
2022-11-12T21:40:07.983Z,100734.22
2022-11-12T21:43:14.854Z,100747.25
2022-11-12T21:46:24.218Z,100730.03
2022-11-12T21:49:32.340Z,100733.63
2022-11-12T21:52:39.244Z,100733.03
2022-11-12T21:55:46.629Z,100726.81
2022-11-12T21:58:59.357Z,100717.63
2022-11-12T22:02:06.254Z,100723.44
2022-11-12T22:05:15.281Z,100719.25
2022-11-12T22:08:22.037Z,100723.66
2022-11-12T22:11:28.919Z,100717.63
2022-11-12T22:14:35.491Z,100722.44
2022-11-12T22:17:42.004Z,100713.25
2022-11-12T22:20:59.165Z,100715.59
2022-11-12T22:24:07.175Z,100702.59
2022-11-12T22:27:13.983Z,100709.00
2022-11-12T22:30:20.968Z,100714.81
2022-11-12T22:33:27.370Z,100697.81
2022-11-12T22:36:36.787Z,100686.22
2022-11-12T22:39:43.127Z,100689.22
2022-11-12T22:42:49.757Z,100679.03
2022-11-12T22:45:56.517Z,100676.41
2022-11-12T22:49:13.844Z,100672.03
2022-11-12T22:52:21.994Z,100668.03
2022-11-12T22:55:29.237Z,100668.41
2022-11-12T22:58:37.522Z,100661.44
2022-11-12T23:01:45.142Z,100661.22
2022-11-12T23:04:52.259Z,100661.00
2022-11-12T23:08:00.907Z,100659.22
2022-11-12T23:11:10.691Z,100649.84
2022-11-12T23:14:16.847Z,100653.22
2022-11-12T23:17:23.073Z,100648.44
2022-11-12T23:20:29.530Z,100648.00
2022-11-12T23:23:37.856Z,100643.19
2022-11-12T23:26:44.427Z,100638.38
2022-11-12T23:29:50.837Z,100631.59
2022-11-12T23:32:57.000Z,100637.53
2022-11-12T23:36:08.374Z,100633.91
2022-11-12T23:39:16.380Z,100622.31
2022-11-12T23:42:22.858Z,100620.94
2022-11-12T23:45:29.391Z,100619.13
2022-11-12T23:48:36.335Z,100613.31
2022-11-12T23:51:43.012Z,100616.94
2022-11-12T23:54:50.838Z,100617.31
2022-11-12T23:57:57.212Z,100612.94
